createdAt,value
2017-09-18T00:00:21.486Z,935.92
2017-09-18T00:00:49.312Z,935.88
2017-09-18T00:01:17.307Z,935.91
2017-09-18T00:01:45.310Z,935.92
2017-09-18T00:02:13.293Z,935.92
2017-09-18T00:02:41.295Z,935.93
2017-09-18T00:03:09.397Z,935.92
2017-09-18T00:03:37.423Z,935.92
2017-09-18T00:04:05.436Z,935.89
2017-09-18T00:04:33.408Z,935.95
2017-09-18T00:05:01.399Z,935.91
2017-09-18T00:05:29.202Z,935.9
2017-09-18T00:05:56.995Z,935.92
2017-09-18T00:06:25.220Z,935.91
2017-09-18T00:06:53.139Z,935.95
2017-09-18T00:07:21.006Z,935.93
2017-09-18T00:07:49.009Z,935.93
2017-09-18T00:08:17.006Z,935.94
2017-09-18T00:08:45.122Z,935.98
2017-09-18T00:09:13.102Z,935.94
2017-09-18T00:09:41.115Z,935.96
2017-09-18T00:10:09.240Z,935.94
2017-09-18T00:10:37.251Z,935.99
2017-09-18T00:11:05.290Z,935.92
2017-09-18T00:11:33.263Z,935.94
2017-09-18T00:12:01.184Z,935.96
2017-09-18T00:12:29.286Z,935.96
2017-09-18T00:12:57.370Z,936
2017-09-18T00:13:25.161Z,936.01
2017-09-18T00:13:53.258Z,936
2017-09-18T00:14:21.248Z,935.96
2017-09-18T00:14:49.387Z,935.95
2017-09-18T00:15:17.488Z,935.98
2017-09-18T00:15:45.609Z,935.95
2017-09-18T00:16:13.723Z,936.01
2017-09-18T00:16:41.727Z,936
2017-09-18T00:17:09.732Z,935.99
2017-09-18T00:17:37.625Z,935.97
2017-09-18T00:18:05.626Z,935.97
2017-09-18T00:18:33.636Z,936.01
2017-09-18T00:19:01.559Z,935.96
2017-09-18T00:19:29.459Z,935.95
2017-09-18T00:19:57.467Z,935.91
2017-09-18T00:20:25.364Z,935.95
2017-09-18T00:20:53.374Z,935.95
2017-09-18T00:21:21.276Z,935.96
2017-09-18T00:21:49.185Z,935.95
2017-09-18T00:22:17.192Z,935.95
2017-09-18T00:22:45.207Z,935.97
2017-09-18T00:23:13.209Z,935.98
2017-09-18T00:23:41.137Z,936
2017-09-18T00:24:08.942Z,935.99
2017-09-18T00:24:36.829Z,935.95
2017-09-18T00:25:04.815Z,936.01
2017-09-18T00:25:32.851Z,935.99
2017-09-18T00:26:00.750Z,935.99
2017-09-18T00:26:28.760Z,936.04
2017-09-18T00:26:56.586Z,936
2017-09-18T00:27:24.624Z,936.01
2017-09-18T00:27:52.594Z,935.99
2017-09-18T00:28:20.709Z,936.02
2017-09-18T00:28:48.716Z,935.99
2017-09-18T00:29:16.656Z,935.98
2017-09-18T00:29:44.662Z,935.98
2017-09-18T00:30:12.675Z,936
2017-09-18T00:30:40.601Z,935.95
2017-09-18T00:31:08.621Z,935.99
2017-09-18T00:31:36.763Z,935.98
2017-09-18T00:32:04.755Z,935.96
2017-09-18T00:32:32.718Z,935.97
2017-09-18T00:33:00.812Z,935.98
2017-09-18T00:33:28.793Z,935.98
2017-09-18T00:33:56.767Z,935.98
2017-09-18T00:34:24.681Z,935.96
2017-09-18T00:34:52.583Z,935.98
2017-09-18T00:35:20.620Z,936
2017-09-18T00:35:48.558Z,935.98
2017-09-18T00:36:16.674Z,936.01
2017-09-18T00:36:44.767Z,936.02
2017-09-18T00:37:12.693Z,936
2017-09-18T00:37:40.709Z,936
2017-09-18T00:38:08.737Z,936.03
2017-09-18T00:38:36.854Z,936.02
2017-09-18T00:39:04.947Z,936.04
2017-09-18T00:39:32.896Z,936.03
2017-09-18T00:40:00.960Z,936.01
2017-09-18T00:40:28.865Z,936
2017-09-18T00:40:56.859Z,936.05
2017-09-18T00:41:25.060Z,936.06
2017-09-18T00:41:53.161Z,936.07
2017-09-18T00:42:21.198Z,936.08
2017-09-18T00:42:49.109Z,936
2017-09-18T00:43:17.136Z,936.03
2017-09-18T00:43:45.038Z,936.02
2017-09-18T00:44:13.050Z,936.01
2017-09-18T00:44:41.160Z,936.04
2017-09-18T00:45:09.070Z,936.03
2017-09-18T00:45:37.189Z,936.01
2017-09-18T00:46:05.260Z,936.01
2017-09-18T00:46:33.166Z,936.04
2017-09-18T00:47:00.978Z,936.03
2017-09-18T00:47:29.108Z,936.03
2017-09-18T00:47:57.142Z,936.03
2017-09-18T00:48:24.941Z,936.02
2017-09-18T00:48:52.989Z,936.05
2017-09-18T00:49:20.985Z,936.06
2017-09-18T00:49:48.793Z,936.05
2017-09-18T00:50:16.621Z,936.02
2017-09-18T00:50:44.635Z,936.01
2017-09-18T00:51:12.544Z,936.02
2017-09-18T00:51:40.566Z,936
2017-09-18T00:52:08.581Z,936.02
2017-09-18T00:52:36.594Z,935.99
2017-09-18T00:53:04.617Z,936.04
2017-09-18T00:53:32.697Z,935.94
2017-09-18T00:54:00.708Z,935.98
2017-09-18T00:54:28.794Z,936
2017-09-18T00:54:56.807Z,935.98
2017-09-18T00:55:24.870Z,935.97
2017-09-18T00:55:52.970Z,935.97
2017-09-18T00:56:20.852Z,935.99
2017-09-18T00:56:48.866Z,935.98
2017-09-18T00:57:16.880Z,935.99
2017-09-18T00:57:44.881Z,935.97
2017-09-18T00:58:12.893Z,935.97
2017-09-18T00:58:41.020Z,935.99
2017-09-18T00:59:09.048Z,936.02
2017-09-18T00:59:37.108Z,936.01
2017-09-18T01:00:05.124Z,935.99
2017-09-18T01:00:33.206Z,935.99
2017-09-18T01:01:01.212Z,936.01
2017-09-18T01:01:29.188Z,936
2017-09-18T01:01:57.422Z,935.98
2017-09-18T01:02:25.338Z,935.98
2017-09-18T01:02:53.320Z,935.98
2017-09-18T01:03:21.350Z,935.95
2017-09-18T01:03:49.368Z,935.97
2017-09-18T01:04:17.311Z,935.98
2017-09-18T01:04:45.219Z,935.98
2017-09-18T01:05:13.114Z,935.99
2017-09-18T01:05:41.030Z,935.99
2017-09-18T01:06:08.867Z,935.99
2017-09-18T01:06:36.976Z,936.01
2017-09-18T01:07:04.878Z,936.03
2017-09-18T01:07:32.915Z,936.04
2017-09-18T01:08:01.021Z,936.01
2017-09-18T01:08:29.031Z,936.04
2017-09-18T01:08:56.936Z,936.06
2017-09-18T01:09:24.940Z,936.06
2017-09-18T01:09:53.089Z,936.04
2017-09-18T01:10:21.093Z,936.04
2017-09-18T01:10:49.235Z,936.09
2017-09-18T01:11:17.037Z,936.03
2017-09-18T01:11:45.181Z,936.07
2017-09-18T01:12:13.289Z,936.09
2017-09-18T01:12:41.283Z,936.08
2017-09-18T01:13:09.173Z,936.07
2017-09-18T01:13:37.158Z,936.09
2017-09-18T01:14:05.104Z,936.06
2017-09-18T01:14:33.236Z,936.12
2017-09-18T01:15:01.146Z,936.1
2017-09-18T01:15:29.180Z,936.09
2017-09-18T01:15:57.090Z,936.09
2017-09-18T01:16:24.899Z,936.09
2017-09-18T01:16:53.115Z,936.1
2017-09-18T01:17:21.224Z,936.04
2017-09-18T01:17:49.220Z,936.09
2017-09-18T01:18:17.064Z,936.06
2017-09-18T01:18:45.186Z,936.04
2017-09-18T01:19:13.211Z,936.12
2017-09-18T01:19:41.243Z,936.07
2017-09-18T01:20:09.377Z,936.07
2017-09-18T01:20:37.336Z,936.11
2017-09-18T01:21:05.331Z,936.11
2017-09-18T01:21:33.322Z,936.09
2017-09-18T01:22:01.506Z,936.05
2017-09-18T01:22:29.619Z,936.08
2017-09-18T01:22:57.548Z,936.09
2017-09-18T01:23:25.537Z,936.06
2017-09-18T01:23:53.453Z,936.11
2017-09-18T01:24:21.607Z,936.1
2017-09-18T01:24:49.627Z,936.07
2017-09-18T01:25:17.619Z,936.07
2017-09-18T01:25:45.644Z,936.06
2017-09-18T01:26:13.559Z,936.11
2017-09-18T01:26:41.503Z,936.08
2017-09-18T01:27:09.518Z,936.08
2017-09-18T01:27:37.539Z,936.09
2017-09-18T01:28:05.641Z,936.09
2017-09-18T01:28:33.735Z,936.06
2017-09-18T01:29:01.758Z,936.07
2017-09-18T01:29:29.748Z,936.11
2017-09-18T01:29:57.649Z,936.07
2017-09-18T01:30:25.654Z,936.1
2017-09-18T01:30:53.591Z,936.09
2017-09-18T01:31:21.399Z,936.07
2017-09-18T01:31:49.575Z,936.09
2017-09-18T01:32:17.510Z,936.1
2017-09-18T01:32:45.491Z,936.09
2017-09-18T01:33:13.625Z,936.09
2017-09-18T01:33:41.637Z,936.09
2017-09-18T01:34:09.663Z,936.13
2017-09-18T01:34:37.696Z,936.09
2017-09-18T01:35:05.370Z,936.12
2017-09-18T01:35:33.484Z,936.1
2017-09-18T01:36:01.492Z,936.1
2017-09-18T01:36:29.585Z,936.12
2017-09-18T01:36:57.831Z,936.12
2017-09-18T01:37:25.920Z,936.1
2017-09-18T01:37:53.711Z,936.09
2017-09-18T01:38:21.830Z,936.09
2017-09-18T01:38:49.919Z,936.1
2017-09-18T01:39:17.775Z,936.11
2017-09-18T01:39:45.681Z,936.12
2017-09-18T01:40:13.717Z,936.09
2017-09-18T01:40:41.648Z,936.11
2017-09-18T01:41:09.638Z,936.11
2017-09-18T01:41:37.732Z,936.13
2017-09-18T01:42:05.970Z,936.09
2017-09-18T01:42:33.932Z,936.13
2017-09-18T01:43:01.970Z,936.12
2017-09-18T01:43:29.944Z,936.09
2017-09-18T01:43:57.878Z,936.1
2017-09-18T01:44:25.802Z,936.1
2017-09-18T01:44:53.918Z,936.11
2017-09-18T01:45:21.923Z,936.13
2017-09-18T01:45:49.755Z,936.11
2017-09-18T01:46:17.633Z,936.1
2017-09-18T01:46:45.450Z,936.1
2017-09-18T01:47:13.461Z,936.14
2017-09-18T01:47:41.585Z,936.1
2017-09-18T01:48:09.608Z,936.11
2017-09-18T01:48:37.596Z,936.15
2017-09-18T01:49:05.610Z,936.13
2017-09-18T01:49:33.450Z,936.12
2017-09-18T01:50:01.478Z,936.13
2017-09-18T01:50:29.506Z,936.15
2017-09-18T01:50:57.396Z,936.12
2017-09-18T01:51:25.390Z,936.13
2017-09-18T01:51:53.198Z,936.17
2017-09-18T01:52:21.305Z,936.11
2017-09-18T01:52:49.393Z,936.09
2017-09-18T01:53:17.303Z,936.11
2017-09-18T01:53:45.202Z,936.1
2017-09-18T01:54:13.203Z,936.14
2017-09-18T01:54:41.294Z,936.13
2017-09-18T01:55:09.194Z,936.13
2017-09-18T01:55:37.222Z,936.12
2017-09-18T01:56:05.104Z,936.11
2017-09-18T01:56:33.118Z,936.14
2017-09-18T01:57:01.329Z,936.14
2017-09-18T01:57:29.350Z,936.16
2017-09-18T01:57:57.351Z,936.13
2017-09-18T01:58:25.365Z,936.13
2017-09-18T01:58:53.166Z,936.22
2017-09-18T01:59:20.952Z,936.16
2017-09-18T01:59:48.988Z,936.17
2017-09-18T02:00:17.110Z,936.22
2017-09-18T02:00:45.111Z,936.17
2017-09-18T02:01:13.117Z,936.19
2017-09-18T02:01:41.211Z,936.18
2017-09-18T02:02:09.322Z,936.18
2017-09-18T02:02:37.434Z,936.19
2017-09-18T02:03:05.550Z,936.21
2017-09-18T02:03:33.525Z,936.21
2017-09-18T02:04:01.235Z,936.19
2017-09-18T02:04:29.150Z,936.18
2017-09-18T02:04:57.265Z,936.18
2017-09-18T02:05:25.265Z,936.19
2017-09-18T02:05:53.324Z,936.17
2017-09-18T02:06:21.371Z,936.18
2017-09-18T02:06:49.470Z,936.16
2017-09-18T02:07:17.735Z,936.2
2017-09-18T02:07:45.871Z,936.15
2017-09-18T02:08:13.863Z,936.09
2017-09-18T02:08:41.938Z,936.17
2017-09-18T02:09:09.830Z,936.16
2017-09-18T02:09:37.820Z,936.15
2017-09-18T02:10:05.641Z,936.16
2017-09-18T02:10:33.570Z,936.14
2017-09-18T02:11:01.651Z,936.14
2017-09-18T02:11:29.747Z,936.16
2017-09-18T02:11:57.845Z,936.14
2017-09-18T02:12:25.768Z,936.12
2017-09-18T02:12:53.808Z,936.16
2017-09-18T02:13:21.903Z,936.12
2017-09-18T02:13:49.912Z,936.1
2017-09-18T02:14:17.917Z,936.1
2017-09-18T02:14:45.936Z,936.09
2017-09-18T02:15:13.765Z,936.1
2017-09-18T02:15:41.679Z,936.08
2017-09-18T02:16:09.653Z,936.08
2017-09-18T02:16:37.648Z,936.08
2017-09-18T02:17:05.785Z,936.09
2017-09-18T02:17:33.793Z,936.08
2017-09-18T02:18:01.806Z,936.04
2017-09-18T02:18:29.944Z,936.08
2017-09-18T02:18:57.867Z,936.05
2017-09-18T02:19:25.913Z,936.1
2017-09-18T02:19:53.806Z,936.08
2017-09-18T02:20:21.722Z,936.06
2017-09-18T02:20:49.817Z,936.12
2017-09-18T02:21:17.610Z,936.06
2017-09-18T02:21:45.440Z,936.08
2017-09-18T02:22:13.639Z,936.12
2017-09-18T02:22:41.725Z,936.11
2017-09-18T02:23:09.625Z,936.08
2017-09-18T02:23:37.712Z,936.12
2017-09-18T02:24:05.652Z,936.1
2017-09-18T02:24:33.755Z,936.08
2017-09-18T02:25:01.864Z,936.1
2017-09-18T02:25:29.682Z,936.08
2017-09-18T02:25:57.686Z,936.07
2017-09-18T02:26:25.750Z,936.08
2017-09-18T02:26:53.760Z,936.05
2017-09-18T02:27:21.772Z,936
2017-09-18T02:27:49.738Z,936.05
2017-09-18T02:28:17.708Z,936.07
2017-09-18T02:28:45.796Z,936.07
2017-09-18T02:29:13.876Z,936.08
2017-09-18T02:29:41.999Z,936.05
2017-09-18T02:30:10.118Z,936.06
2017-09-18T02:30:38.202Z,936.05
2017-09-18T02:31:06.339Z,936.08
2017-09-18T02:31:34.313Z,936.05
2017-09-18T02:32:02.303Z,936.07
2017-09-18T02:32:30.351Z,936.03
2017-09-18T02:32:58.333Z,936.09
2017-09-18T02:33:26.150Z,936.08
2017-09-18T02:33:54.187Z,936.06
2017-09-18T02:34:22.224Z,936.08
2017-09-18T02:34:50.233Z,936.05
2017-09-18T02:35:18.336Z,936.06
2017-09-18T02:35:46.423Z,936.05
2017-09-18T02:36:14.418Z,936.04
2017-09-18T02:36:42.320Z,936.06
2017-09-18T02:37:10.406Z,936.09
2017-09-18T02:37:38.612Z,936.07
2017-09-18T02:38:06.629Z,936.03
2017-09-18T02:38:34.626Z,936.04
2017-09-18T02:39:02.668Z,936.05
2017-09-18T02:39:30.782Z,936.03
2017-09-18T02:39:58.872Z,936.03
2017-09-18T02:40:26.745Z,936.03
2017-09-18T02:40:54.734Z,935.98
2017-09-18T02:41:22.847Z,936
2017-09-18T02:41:50.839Z,936
2017-09-18T02:42:18.850Z,936.02
2017-09-18T02:42:47.068Z,935.99
2017-09-18T02:43:15.151Z,936.04
2017-09-18T02:43:43.078Z,936.05
2017-09-18T02:44:11.082Z,936
2017-09-18T02:44:39.003Z,935.97
2017-09-18T02:45:07.096Z,935.97
2017-09-18T02:45:35.098Z,935.98
2017-09-18T02:46:03.087Z,935.95
2017-09-18T02:46:31.092Z,936.01
2017-09-18T02:46:59.202Z,935.98
2017-09-18T02:47:27.432Z,935.95
2017-09-18T02:47:55.235Z,935.92
2017-09-18T02:48:23.125Z,935.96
2017-09-18T02:48:50.995Z,935.92
2017-09-18T02:49:18.874Z,935.96
2017-09-18T02:49:46.954Z,935.92
2017-09-18T02:50:14.889Z,935.93
2017-09-18T02:50:42.906Z,935.92
2017-09-18T02:51:10.824Z,935.94
2017-09-18T02:51:38.857Z,935.9
2017-09-18T02:52:06.607Z,935.91
2017-09-18T02:52:34.713Z,935.94
2017-09-18T02:53:02.702Z,935.91
2017-09-18T02:53:30.528Z,935.92
2017-09-18T02:53:58.662Z,935.9
2017-09-18T02:54:26.564Z,935.93
2017-09-18T02:54:54.574Z,935.9
2017-09-18T02:55:22.505Z,935.91
2017-09-18T02:55:50.614Z,935.94
2017-09-18T02:56:18.635Z,935.86
2017-09-18T02:56:46.748Z,935.86
2017-09-18T02:57:14.629Z,935.84
2017-09-18T02:57:42.704Z,935.87
2017-09-18T02:58:10.712Z,935.87
2017-09-18T02:58:38.840Z,935.85
2017-09-18T02:59:06.926Z,935.83
2017-09-18T02:59:34.754Z,935.84
2017-09-18T03:00:02.651Z,935.8
2017-09-18T03:00:30.674Z,935.81
2017-09-18T03:00:58.676Z,935.85
2017-09-18T03:01:26.638Z,935.85
2017-09-18T03:01:54.561Z,935.84
2017-09-18T03:02:22.621Z,935.83
2017-09-18T03:02:50.707Z,935.83
2017-09-18T03:03:18.689Z,935.85
2017-09-18T03:03:46.721Z,935.83
2017-09-18T03:04:14.725Z,935.84
2017-09-18T03:04:42.837Z,935.82
2017-09-18T03:05:10.856Z,935.84
2017-09-18T03:05:38.862Z,935.86
2017-09-18T03:06:06.991Z,935.83
2017-09-18T03:06:34.865Z,935.84
2017-09-18T03:07:02.737Z,935.83
2017-09-18T03:07:30.891Z,935.82
2017-09-18T03:07:58.801Z,935.81
2017-09-18T03:08:26.698Z,935.83
2017-09-18T03:08:54.732Z,935.8
2017-09-18T03:09:22.616Z,935.82
2017-09-18T03:09:50.613Z,935.79
2017-09-18T03:10:18.691Z,935.79
2017-09-18T03:10:46.790Z,935.77
2017-09-18T03:11:14.623Z,935.77
2017-09-18T03:11:42.624Z,935.81
2017-09-18T03:12:10.430Z,935.79
2017-09-18T03:12:38.636Z,935.75
2017-09-18T03:13:06.677Z,935.74
2017-09-18T03:13:34.466Z,935.74
2017-09-18T03:14:02.452Z,935.75
2017-09-18T03:14:30.243Z,935.74
2017-09-18T03:14:58.338Z,935.71
2017-09-18T03:15:26.341Z,935.67
2017-09-18T03:15:54.314Z,935.72
2017-09-18T03:16:22.406Z,935.72
2017-09-18T03:16:50.314Z,935.68
2017-09-18T03:17:18.101Z,935.7
2017-09-18T03:17:46.170Z,935.7
2017-09-18T03:18:14.181Z,935.73
2017-09-18T03:18:42.167Z,935.71
2017-09-18T03:19:10.260Z,935.73
2017-09-18T03:19:38.255Z,935.76
2017-09-18T03:20:06.338Z,935.68
2017-09-18T03:20:34.214Z,935.69
2017-09-18T03:21:02.243Z,935.7
2017-09-18T03:21:30.057Z,935.73
2017-09-18T03:21:58.053Z,935.69
2017-09-18T03:22:26.152Z,935.7
2017-09-18T03:22:54.251Z,935.64
2017-09-18T03:23:22.144Z,935.7
2017-09-18T03:23:50.109Z,935.72
2017-09-18T03:24:18.108Z,935.69
2017-09-18T03:24:46.013Z,935.7
2017-09-18T03:25:14.020Z,935.7
2017-09-18T03:25:42.011Z,935.69
2017-09-18T03:26:10.134Z,935.66
2017-09-18T03:26:38.124Z,935.66
2017-09-18T03:27:06.010Z,935.72
2017-09-18T03:27:33.922Z,935.71
2017-09-18T03:28:02.030Z,935.66
2017-09-18T03:28:30.140Z,935.67
2017-09-18T03:28:58.177Z,935.67
2017-09-18T03:29:26.263Z,935.66
2017-09-18T03:29:54.400Z,935.69
2017-09-18T03:30:22.403Z,935.63
2017-09-18T03:30:50.207Z,935.64
2017-09-18T03:31:18.130Z,935.65
2017-09-18T03:31:46.138Z,935.61
2017-09-18T03:32:14.240Z,935.63
2017-09-18T03:32:42.231Z,935.64
2017-09-18T03:33:10.409Z,935.59
2017-09-18T03:33:38.408Z,935.63
2017-09-18T03:34:06.419Z,935.62
2017-09-18T03:34:34.342Z,935.65
2017-09-18T03:35:02.351Z,935.63
2017-09-18T03:35:30.352Z,935.61
2017-09-18T03:35:58.239Z,935.64
2017-09-18T03:36:26.142Z,935.62
2017-09-18T03:36:54.243Z,935.59
2017-09-18T03:37:22.348Z,935.61
2017-09-18T03:37:50.331Z,935.58
2017-09-18T03:38:18.321Z,935.59
2017-09-18T03:38:46.316Z,935.6
2017-09-18T03:39:14.431Z,935.59
2017-09-18T03:39:42.412Z,935.59
2017-09-18T03:40:10.306Z,935.6
2017-09-18T03:40:38.291Z,935.59
2017-09-18T03:41:06.202Z,935.6
2017-09-18T03:41:33.985Z,935.58
2017-09-18T03:42:02.123Z,935.58
2017-09-18T03:42:30.143Z,935.54
2017-09-18T03:42:58.351Z,935.6
2017-09-18T03:43:26.369Z,935.59
2017-09-18T03:43:54.351Z,935.58
2017-09-18T03:44:22.349Z,935.57
2017-09-18T03:44:50.373Z,935.57
2017-09-18T03:45:18.368Z,935.55
2017-09-18T03:45:46.359Z,935.54
2017-09-18T03:46:14.401Z,935.54
2017-09-18T03:46:42.389Z,935.54
2017-09-18T03:47:10.295Z,935.57
2017-09-18T03:47:38.315Z,935.57
2017-09-18T03:48:06.458Z,935.54
2017-09-18T03:48:34.531Z,935.56
2017-09-18T03:49:02.426Z,935.56
2017-09-18T03:49:30.331Z,935.56
2017-09-18T03:49:58.311Z,935.55
2017-09-18T03:50:26.305Z,935.58
2017-09-18T03:50:54.293Z,935.55
2017-09-18T03:51:22.294Z,935.55
2017-09-18T03:51:50.386Z,935.52
2017-09-18T03:52:18.273Z,935.54
2017-09-18T03:52:46.160Z,935.54
2017-09-18T03:53:14.339Z,935.52
2017-09-18T03:53:42.325Z,935.52
2017-09-18T03:54:10.254Z,935.52
2017-09-18T03:54:38.329Z,935.52
2017-09-18T03:55:06.318Z,935.57
2017-09-18T03:55:34.429Z,935.53
2017-09-18T03:56:02.427Z,935.54
2017-09-18T03:56:30.425Z,935.54
2017-09-18T03:56:58.448Z,935.53
2017-09-18T03:57:26.578Z,935.5
2017-09-18T03:57:54.562Z,935.53
2017-09-18T03:58:22.740Z,935.5
2017-09-18T03:58:50.746Z,935.51
2017-09-18T03:59:18.670Z,935.43
2017-09-18T03:59:46.682Z,935.49
2017-09-18T04:00:14.651Z,935.45
2017-09-18T04:00:42.514Z,935.47
2017-09-18T04:01:10.630Z,935.48
2017-09-18T04:01:38.743Z,935.47
2017-09-18T04:02:06.580Z,935.46
2017-09-18T04:02:34.497Z,935.45
2017-09-18T04:03:02.516Z,935.46
2017-09-18T04:03:30.631Z,935.48
2017-09-18T04:03:58.625Z,935.41
2017-09-18T04:04:26.643Z,935.45
2017-09-18T04:04:54.641Z,935.46
2017-09-18T04:05:22.538Z,935.47
2017-09-18T04:05:50.434Z,935.46
2017-09-18T04:06:18.421Z,935.44
2017-09-18T04:06:46.431Z,935.44
2017-09-18T04:07:14.506Z,935.45
2017-09-18T04:07:42.385Z,935.44
2017-09-18T04:08:10.471Z,935.44
2017-09-18T04:08:38.470Z,935.42
2017-09-18T04:09:06.392Z,935.42
2017-09-18T04:09:34.474Z,935.43
2017-09-18T04:10:02.541Z,935.4
2017-09-18T04:10:30.640Z,935.42
2017-09-18T04:10:58.734Z,935.39
2017-09-18T04:11:26.643Z,935.4
2017-09-18T04:11:54.620Z,935.4
2017-09-18T04:12:22.638Z,935.4
2017-09-18T04:12:50.624Z,935.35
2017-09-18T04:13:18.624Z,935.41
2017-09-18T04:13:46.615Z,935.42
2017-09-18T04:14:14.435Z,935.37
2017-09-18T04:14:42.431Z,935.33
2017-09-18T04:15:10.325Z,935.38
2017-09-18T04:15:38.321Z,935.38
2017-09-18T04:16:06.409Z,935.34
2017-09-18T04:16:34.177Z,935.34
2017-09-18T04:17:02.273Z,935.35
2017-09-18T04:17:30.173Z,935.35
2017-09-18T04:17:58.168Z,935.3
2017-09-18T04:18:26.264Z,935.34
2017-09-18T04:18:54.342Z,935.3
2017-09-18T04:19:22.249Z,935.33
2017-09-18T04:19:50.052Z,935.32
2017-09-18T04:20:18.133Z,935.31
2017-09-18T04:20:45.918Z,935.28
2017-09-18T04:21:13.925Z,935.29
2017-09-18T04:21:41.840Z,935.32
2017-09-18T04:22:09.857Z,935.3
2017-09-18T04:22:37.755Z,935.32
2017-09-18T04:23:05.867Z,935.31
2017-09-18T04:23:33.872Z,935.28
2017-09-18T04:24:01.946Z,935.28
2017-09-18T04:24:29.843Z,935.33
2017-09-18T04:24:57.924Z,935.27
2017-09-18T04:25:26.028Z,935.33
2017-09-18T04:25:54.048Z,935.3
2017-09-18T04:26:22.031Z,935.3
2017-09-18T04:26:49.921Z,935.3
2017-09-18T04:27:17.696Z,935.29
2017-09-18T04:27:45.687Z,935.26
2017-09-18T04:28:13.892Z,935.27
2017-09-18T04:28:41.874Z,935.26
2017-09-18T04:29:09.887Z,935.26
2017-09-18T04:29:37.900Z,935.26
2017-09-18T04:30:05.835Z,935.24
2017-09-18T04:30:33.662Z,935.24
2017-09-18T04:31:01.473Z,935.25
2017-09-18T04:31:29.563Z,935.23
2017-09-18T04:31:57.593Z,935.24
2017-09-18T04:32:25.496Z,935.26
2017-09-18T04:32:53.415Z,935.23
2017-09-18T04:33:21.427Z,935.24
2017-09-18T04:33:49.320Z,935.22
2017-09-18T04:34:17.397Z,935.22
2017-09-18T04:34:45.423Z,935.24
2017-09-18T04:35:13.426Z,935.24
2017-09-18T04:35:41.411Z,935.23
2017-09-18T04:36:09.508Z,935.18
2017-09-18T04:36:37.518Z,935.24
2017-09-18T04:37:05.607Z,935.25
2017-09-18T04:37:33.623Z,935.21
2017-09-18T04:38:01.459Z,935.23
2017-09-18T04:38:29.642Z,935.23
2017-09-18T04:38:57.436Z,935.26
2017-09-18T04:39:25.478Z,935.2
2017-09-18T04:39:53.377Z,935.25
2017-09-18T04:40:21.187Z,935.22
2017-09-18T04:40:49.009Z,935.23
2017-09-18T04:41:16.893Z,935.22
2017-09-18T04:41:44.917Z,935.24
2017-09-18T04:42:13.024Z,935.27
2017-09-18T04:42:41.053Z,935.25
2017-09-18T04:43:09.052Z,935.22
2017-09-18T04:43:37.154Z,935.25
2017-09-18T04:44:05.150Z,935.22
2017-09-18T04:44:33.244Z,935.25
2017-09-18T04:45:01.084Z,935.24
2017-09-18T04:45:28.933Z,935.22
2017-09-18T04:45:57.000Z,935.21
2017-09-18T04:46:24.983Z,935.24
2017-09-18T04:46:52.984Z,935.2
2017-09-18T04:47:20.843Z,935.23
2017-09-18T04:47:48.821Z,935.2
2017-09-18T04:48:16.843Z,935.23
2017-09-18T04:48:44.982Z,935.22
2017-09-18T04:49:13.009Z,935.23
2017-09-18T04:49:41.096Z,935.2
2017-09-18T04:50:09.204Z,935.21
2017-09-18T04:50:37.314Z,935.22
2017-09-18T04:51:05.222Z,935.23
2017-09-18T04:51:33.131Z,935.23
2017-09-18T04:52:01.157Z,935.21
2017-09-18T04:52:29.152Z,935.2
2017-09-18T04:52:57.056Z,935.17
2017-09-18T04:53:24.958Z,935.19
2017-09-18T04:53:52.952Z,935.17
2017-09-18T04:54:20.940Z,935.18
2017-09-18T04:54:49.045Z,935.18
2017-09-18T04:55:17.015Z,935.18
2017-09-18T04:55:45.129Z,935.2
2017-09-18T04:56:13.002Z,935.14
2017-09-18T04:56:40.918Z,935.18
2017-09-18T04:57:09.066Z,935.18
2017-09-18T04:57:37.063Z,935.18
2017-09-18T04:58:04.991Z,935.14
2017-09-18T04:58:33.128Z,935.16
2017-09-18T04:59:01.146Z,935.15
2017-09-18T04:59:29.144Z,935.15
2017-09-18T04:59:57.239Z,935.14
2017-09-18T05:00:25.227Z,935.14
2017-09-18T05:00:53.121Z,935.16
2017-09-18T05:01:21.134Z,935.14
2017-09-18T05:01:48.941Z,935.14
2017-09-18T05:02:16.852Z,935.12
2017-09-18T05:02:44.855Z,935.16
2017-09-18T05:03:12.684Z,935.13
2017-09-18T05:03:40.715Z,935.1
2017-09-18T05:04:08.733Z,935.12
2017-09-18T05:04:36.796Z,935.14
2017-09-18T05:05:04.924Z,935.11
2017-09-18T05:05:33.010Z,935.14
2017-09-18T05:06:00.967Z,935.14
2017-09-18T05:06:28.970Z,935.13
2017-09-18T05:06:56.877Z,935.1
2017-09-18T05:07:24.867Z,935.12
2017-09-18T05:07:52.850Z,935.15
2017-09-18T05:08:20.775Z,935.15
2017-09-18T05:08:48.899Z,935.13
2017-09-18T05:09:16.913Z,935.09
2017-09-18T05:09:44.894Z,935.11
2017-09-18T05:10:12.918Z,935.1
2017-09-18T05:10:40.825Z,935.07
2017-09-18T05:11:08.917Z,935.11
2017-09-18T05:11:36.844Z,935.07
2017-09-18T05:12:04.860Z,935.08
2017-09-18T05:12:32.873Z,935.06
2017-09-18T05:13:01.022Z,935.07
2017-09-18T05:13:29.127Z,935.04
2017-09-18T05:13:57.126Z,935.07
2017-09-18T05:14:25.065Z,935.07
2017-09-18T05:14:53.174Z,935.06
2017-09-18T05:15:21.298Z,935.03
2017-09-18T05:15:49.382Z,935.05
2017-09-18T05:16:17.371Z,935.04
2017-09-18T05:16:45.381Z,935.03
2017-09-18T05:17:13.459Z,935.02
2017-09-18T05:17:41.505Z,935.03
2017-09-18T05:18:09.510Z,935.04
2017-09-18T05:18:37.610Z,935.01
2017-09-18T05:19:05.602Z,935.03
2017-09-18T05:19:33.753Z,935.01
2017-09-18T05:20:01.849Z,935.02
2017-09-18T05:20:29.823Z,935.05
2017-09-18T05:20:57.826Z,935.04
2017-09-18T05:21:25.636Z,935.03
2017-09-18T05:21:53.535Z,935.07
2017-09-18T05:22:21.631Z,935.03
2017-09-18T05:22:49.480Z,935.04
2017-09-18T05:23:17.493Z,935.04
2017-09-18T05:23:45.685Z,935.07
2017-09-18T05:24:13.710Z,935.02
2017-09-18T05:24:41.592Z,935.02
2017-09-18T05:25:09.604Z,935.06
2017-09-18T05:25:37.608Z,935
2017-09-18T05:26:05.612Z,935
2017-09-18T05:26:33.387Z,935.03
2017-09-18T05:27:01.396Z,935.02
2017-09-18T05:27:29.520Z,935.02
2017-09-18T05:27:57.320Z,935
2017-09-18T05:28:25.411Z,934.99
2017-09-18T05:28:53.642Z,935.02
2017-09-18T05:29:21.667Z,935
2017-09-18T05:29:49.777Z,935.02
2017-09-18T05:30:17.819Z,935.01
2017-09-18T05:30:45.804Z,934.99
2017-09-18T05:31:13.679Z,934.95
2017-09-18T05:31:41.645Z,934.95
2017-09-18T05:32:09.633Z,934.98
2017-09-18T05:32:37.633Z,934.94
2017-09-18T05:33:05.748Z,934.97
2017-09-18T05:33:33.747Z,934.91
2017-09-18T05:34:01.836Z,934.94
2017-09-18T05:34:29.855Z,934.94
2017-09-18T05:34:57.743Z,934.94
2017-09-18T05:35:25.851Z,934.92
2017-09-18T05:35:53.870Z,934.95
2017-09-18T05:36:21.761Z,934.89
2017-09-18T05:36:49.738Z,934.9
2017-09-18T05:37:17.763Z,934.93
2017-09-18T05:37:45.643Z,934.9
2017-09-18T05:38:13.628Z,934.9
2017-09-18T05:38:41.542Z,934.89
2017-09-18T05:39:09.775Z,934.9
2017-09-18T05:39:37.565Z,934.93
2017-09-18T05:40:05.473Z,934.9
2017-09-18T05:40:33.553Z,934.9
2017-09-18T05:41:01.649Z,934.89
2017-09-18T05:41:29.638Z,934.9
2017-09-18T05:41:57.760Z,934.88
2017-09-18T05:42:25.745Z,934.89
2017-09-18T05:42:53.754Z,934.92
2017-09-18T05:43:21.870Z,934.88
2017-09-18T05:43:49.855Z,934.89
2017-09-18T05:44:17.628Z,934.84
2017-09-18T05:44:45.577Z,934.87
2017-09-18T05:45:13.558Z,934.87
2017-09-18T05:45:41.461Z,934.88
2017-09-18T05:46:09.463Z,934.87
2017-09-18T05:46:37.353Z,934.84
2017-09-18T05:47:05.375Z,934.83
2017-09-18T05:47:33.414Z,934.84
2017-09-18T05:48:01.394Z,934.82
2017-09-18T05:48:29.396Z,934.83
2017-09-18T05:48:57.581Z,934.86
2017-09-18T05:49:25.294Z,934.84
2017-09-18T05:49:53.190Z,934.8
2017-09-18T05:50:21.201Z,934.81
2017-09-18T05:50:49.205Z,934.8
2017-09-18T05:51:17.309Z,934.79